createdAt,value
2022-11-29T00:01:17.962Z,4.70
2022-11-29T00:03:45.433Z,4.70
2022-11-29T00:06:14.812Z,4.70
2022-11-29T00:08:42.751Z,4.70
2022-11-29T00:11:12.200Z,4.60
2022-11-29T00:13:39.994Z,4.70
2022-11-29T00:16:10.296Z,4.60
2022-11-29T00:18:37.562Z,4.60
2022-11-29T00:21:10.886Z,4.60
2022-11-29T00:23:37.843Z,4.60
2022-11-29T00:26:06.738Z,4.60
2022-11-29T00:28:35.897Z,4.60
2022-11-29T00:31:21.237Z,4.60
2022-11-29T00:33:49.206Z,4.60
2022-11-29T00:36:16.362Z,4.60
2022-11-29T00:38:44.447Z,4.50
2022-11-29T00:41:11.871Z,4.60
2022-11-29T00:43:39.370Z,4.60
2022-11-29T00:46:07.058Z,4.50
2022-11-29T00:48:34.043Z,4.60
2022-11-29T00:51:01.317Z,4.60
2022-11-29T00:53:28.671Z,4.50
2022-11-29T00:55:55.954Z,4.50
2022-11-29T00:58:23.189Z,4.60
2022-11-29T01:00:50.255Z,4.50
2022-11-29T01:03:17.646Z,4.50
2022-11-29T01:05:45.279Z,4.50
2022-11-29T01:08:12.718Z,4.60
2022-11-29T01:10:39.677Z,4.50
2022-11-29T01:13:06.975Z,4.60
2022-11-29T01:15:34.377Z,4.50
2022-11-29T01:18:01.344Z,4.50
2022-11-29T01:20:29.174Z,4.60
2022-11-29T01:22:56.165Z,4.50
2022-11-29T01:25:23.181Z,4.50
2022-11-29T01:27:50.037Z,4.50
2022-11-29T01:30:17.063Z,4.60
2022-11-29T01:32:43.899Z,4.50
2022-11-29T01:35:10.895Z,4.60
2022-11-29T01:37:38.744Z,4.50
2022-11-29T01:40:06.429Z,4.60
2022-11-29T01:42:33.418Z,4.60
2022-11-29T01:45:07.833Z,4.60
2022-11-29T01:47:38.937Z,4.50
2022-11-29T01:50:07.548Z,4.60
2022-11-29T01:52:34.367Z,4.50
2022-11-29T01:55:05.215Z,4.60
2022-11-29T01:57:34.735Z,4.60
2022-11-29T02:00:09.900Z,4.60
2022-11-29T02:02:55.535Z,4.50
2022-11-29T02:05:23.474Z,4.60
2022-11-29T02:07:53.593Z,4.60
2022-11-29T02:10:24.272Z,4.60
2022-11-29T02:13:00.274Z,4.50
2022-11-29T02:15:39.227Z,4.60
2022-11-29T02:18:23.297Z,4.60
2022-11-29T02:21:11.426Z,4.50
2022-11-29T02:24:15.069Z,4.60
2022-11-29T02:26:57.465Z,4.60
2022-11-29T02:29:32.304Z,4.60
2022-11-29T02:32:18.565Z,4.60
2022-11-29T02:35:29.952Z,4.60
2022-11-29T02:37:57.290Z,4.60
2022-11-29T02:40:39.303Z,4.60
2022-11-29T02:43:43.853Z,4.60
2022-11-29T02:46:41.566Z,4.60
2022-11-29T02:49:19.984Z,4.60
2022-11-29T02:52:02.271Z,4.60
2022-11-29T02:54:55.339Z,4.60
2022-11-29T02:57:53.949Z,4.60
2022-11-29T03:00:22.701Z,4.60
2022-11-29T03:03:01.396Z,4.60
2022-11-29T03:05:40.696Z,4.60
2022-11-29T03:08:07.793Z,4.70
2022-11-29T03:10:50.231Z,4.70
2022-11-29T03:13:31.844Z,4.70
2022-11-29T03:16:24.892Z,4.70
2022-11-29T03:19:38.859Z,4.70
2022-11-29T03:22:33.682Z,4.70
2022-11-29T03:25:04.103Z,4.70
2022-11-29T03:27:43.720Z,4.70
2022-11-29T03:30:17.695Z,4.80
2022-11-29T03:33:03.286Z,4.80
2022-11-29T03:35:47.225Z,4.80
2022-11-29T03:38:38.970Z,4.80
2022-11-29T03:41:28.218Z,4.80
2022-11-29T03:44:07.560Z,4.80
2022-11-29T03:46:55.434Z,4.80
2022-11-29T03:49:51.626Z,4.90
2022-11-29T03:52:33.124Z,4.80
2022-11-29T03:55:14.838Z,4.80
2022-11-29T03:58:02.901Z,4.90
2022-11-29T04:00:48.094Z,4.90
2022-11-29T04:03:42.791Z,4.90
2022-11-29T04:06:25.108Z,4.90
2022-11-29T04:09:39.700Z,4.90
2022-11-29T04:12:48.027Z,4.90
2022-11-29T04:15:18.115Z,4.90
2022-11-29T04:17:47.982Z,4.90
2022-11-29T04:20:29.907Z,4.90
2022-11-29T04:23:36.658Z,4.90
2022-11-29T04:26:20.464Z,4.90
2022-11-29T04:29:01.279Z,5.00
2022-11-29T04:31:53.755Z,5.00
2022-11-29T04:34:20.550Z,5.00
2022-11-29T04:37:04.324Z,5.00
2022-11-29T04:39:31.432Z,5.00
2022-11-29T04:42:23.120Z,5.00
2022-11-29T04:45:04.135Z,5.00
2022-11-29T04:47:47.597Z,5.00
2022-11-29T04:50:17.852Z,5.00
2022-11-29T04:53:00.058Z,4.90
2022-11-29T04:55:54.771Z,5.00
2022-11-29T04:58:56.658Z,4.90
2022-11-29T05:01:37.127Z,4.90
2022-11-29T05:04:31.817Z,4.90
2022-11-29T05:07:17.555Z,5.00
2022-11-29T05:10:06.148Z,4.90
2022-11-29T05:12:44.005Z,5.00
2022-11-29T05:16:08.335Z,5.00
2022-11-29T05:18:55.981Z,5.00
2022-11-29T05:21:35.364Z,5.00
2022-11-29T05:24:17.394Z,5.00
2022-11-29T05:26:50.497Z,5.00
2022-11-29T05:29:32.255Z,5.00
2022-11-29T05:32:04.838Z,5.00
2022-11-29T05:35:19.491Z,4.90
2022-11-29T05:37:56.720Z,5.00
2022-11-29T05:40:40.857Z,5.00
2022-11-29T05:43:30.678Z,5.00
2022-11-29T05:46:09.339Z,5.00
2022-11-29T05:48:48.355Z,5.00
2022-11-29T05:51:30.929Z,5.00
2022-11-29T05:54:27.864Z,5.00
2022-11-29T05:57:19.367Z,5.00
2022-11-29T05:59:49.057Z,5.00
2022-11-29T06:02:46.733Z,5.00
2022-11-29T06:05:27.065Z,5.00
2022-11-29T06:08:04.629Z,5.10
2022-11-29T06:10:41.655Z,5.00
2022-11-29T06:13:31.138Z,5.00
2022-11-29T06:16:40.145Z,5.00
2022-11-29T06:19:31.746Z,5.00
2022-11-29T06:22:09.993Z,5.00
2022-11-29T06:25:02.281Z,5.00
2022-11-29T06:27:57.764Z,5.00
2022-11-29T06:30:37.378Z,5.00
2022-11-29T06:33:51.235Z,5.00
2022-11-29T06:36:47.276Z,5.00
2022-11-29T06:39:17.470Z,5.10
2022-11-29T06:41:44.383Z,5.10
2022-11-29T06:44:11.635Z,5.10
2022-11-29T06:47:00.027Z,5.10
2022-11-29T06:49:30.631Z,5.10
2022-11-29T06:52:11.267Z,5.10
2022-11-29T06:54:53.362Z,5.10
2022-11-29T06:57:24.851Z,5.10
2022-11-29T07:00:06.851Z,5.20
2022-11-29T07:02:36.540Z,5.20
2022-11-29T07:05:22.551Z,5.20
2022-11-29T07:07:50.709Z,5.20
2022-11-29T07:10:19.795Z,5.20
2022-11-29T07:12:49.160Z,5.20
2022-11-29T07:15:19.354Z,5.20
2022-11-29T07:18:07.344Z,5.30
2022-11-29T07:20:55.398Z,5.20
2022-11-29T07:23:34.439Z,5.30
2022-11-29T07:26:12.476Z,5.30
2022-11-29T07:28:56.596Z,5.30
2022-11-29T07:31:59.511Z,5.40
2022-11-29T07:35:01.943Z,5.30
2022-11-29T07:37:34.702Z,5.40
2022-11-29T07:40:16.457Z,5.50
2022-11-29T07:42:52.853Z,5.40
2022-11-29T07:45:36.112Z,5.50
2022-11-29T07:48:04.109Z,5.50
2022-11-29T07:50:31.692Z,5.60
2022-11-29T07:52:59.993Z,5.60
2022-11-29T07:55:27.795Z,5.60
2022-11-29T07:57:55.450Z,5.70
2022-11-29T08:00:23.598Z,5.70
2022-11-29T08:02:50.615Z,5.80
2022-11-29T08:05:18.395Z,5.80
2022-11-29T08:07:46.539Z,5.90
2022-11-29T08:10:16.752Z,5.90
2022-11-29T08:12:45.981Z,5.90
2022-11-29T08:15:13.740Z,6.00
2022-11-29T08:17:41.143Z,6.00
2022-11-29T08:20:09.633Z,6.00
2022-11-29T08:22:36.600Z,6.00
2022-11-29T08:25:04.728Z,6.00
2022-11-29T08:27:32.257Z,6.00
2022-11-29T08:30:00.763Z,6.00
2022-11-29T08:32:28.293Z,6.10
2022-11-29T08:34:55.248Z,6.00
2022-11-29T08:37:22.424Z,6.10
2022-11-29T08:39:49.483Z,6.00
2022-11-29T08:42:16.298Z,6.10
2022-11-29T08:44:43.352Z,6.10
2022-11-29T08:47:29.911Z,6.10
2022-11-29T08:50:04.169Z,6.10
2022-11-29T08:53:01.524Z,6.10
2022-11-29T08:55:32.901Z,6.10
2022-11-29T08:58:08.635Z,6.10
2022-11-29T09:00:36.018Z,6.00
2022-11-29T09:03:22.646Z,6.10
2022-11-29T09:05:49.849Z,6.10
2022-11-29T09:08:16.729Z,6.10
2022-11-29T09:10:43.758Z,6.10
2022-11-29T09:13:11.483Z,6.20
2022-11-29T09:15:42.505Z,6.20
2022-11-29T09:18:09.600Z,6.30
2022-11-29T09:20:36.773Z,6.30
2022-11-29T09:23:03.652Z,6.30
2022-11-29T09:25:30.677Z,6.40
2022-11-29T09:28:02.844Z,6.30
2022-11-29T09:30:31.554Z,6.40
2022-11-29T09:33:05.030Z,6.40
2022-11-29T09:35:32.401Z,6.40
2022-11-29T09:37:59.546Z,6.40
2022-11-29T09:40:54.567Z,6.40
2022-11-29T09:43:25.318Z,6.40
2022-11-29T09:46:01.235Z,6.40
2022-11-29T09:48:31.063Z,6.40
2022-11-29T09:51:44.484Z,6.50
2022-11-29T09:54:24.283Z,6.50
2022-11-29T09:56:55.441Z,6.50
2022-11-29T09:59:43.475Z,6.50
2022-11-29T10:02:28.310Z,6.50
2022-11-29T10:05:03.029Z,6.50
2022-11-29T10:07:32.923Z,6.50
2022-11-29T10:10:17.195Z,6.50
2022-11-29T10:12:53.653Z,6.50
2022-11-29T10:15:30.762Z,6.50
2022-11-29T10:18:10.308Z,6.50
2022-11-29T10:20:49.057Z,6.50
2022-11-29T10:23:24.292Z,6.50
2022-11-29T10:25:54.137Z,6.50
2022-11-29T10:28:24.109Z,6.60
2022-11-29T10:30:54.523Z,6.60
2022-11-29T10:33:26.801Z,6.60
2022-11-29T10:35:58.905Z,6.60
2022-11-29T10:38:31.270Z,6.70
2022-11-29T10:41:06.616Z,6.60
2022-11-29T10:43:33.515Z,6.70
2022-11-29T10:46:02.421Z,6.60
2022-11-29T10:48:33.020Z,6.70
2022-11-29T10:51:01.348Z,6.70
2022-11-29T10:53:36.003Z,6.70
2022-11-29T10:56:22.335Z,6.70
2022-11-29T10:59:05.271Z,6.70
2022-11-29T11:01:36.772Z,6.80
2022-11-29T11:04:07.481Z,6.70
2022-11-29T11:06:52.427Z,6.80
2022-11-29T11:09:39.071Z,6.70
2022-11-29T11:12:14.926Z,6.70
2022-11-29T11:14:44.004Z,6.70
2022-11-29T11:17:32.556Z,6.80
2022-11-29T11:20:05.785Z,6.70
2022-11-29T11:22:34.663Z,6.80
2022-11-29T11:25:05.623Z,6.80
2022-11-29T11:27:36.171Z,6.80
2022-11-29T11:30:05.785Z,6.90
2022-11-29T11:32:32.629Z,6.90
2022-11-29T11:35:02.284Z,6.90
2022-11-29T11:37:35.712Z,6.90
2022-11-29T11:40:41.267Z,6.90
2022-11-29T11:43:20.262Z,6.90
2022-11-29T11:45:53.458Z,6.90
2022-11-29T11:48:21.658Z,6.90
2022-11-29T11:50:57.626Z,7.00
2022-11-29T11:53:27.557Z,7.00
2022-11-29T11:55:56.497Z,7.00
2022-11-29T11:58:25.997Z,7.00
2022-11-29T12:01:13.398Z,7.00
2022-11-29T12:03:50.178Z,7.00
2022-11-29T12:06:41.841Z,7.00
2022-11-29T12:09:08.638Z,7.00
2022-11-29T12:12:06.566Z,7.10
2022-11-29T12:14:46.111Z,7.10
2022-11-29T12:17:31.439Z,7.10
2022-11-29T12:20:17.033Z,7.10
2022-11-29T12:23:05.165Z,7.20
2022-11-29T12:25:40.707Z,7.10
2022-11-29T12:28:20.408Z,7.10
2022-11-29T12:30:59.975Z,7.10
2022-11-29T12:33:36.925Z,7.10
2022-11-29T12:36:13.563Z,7.10
2022-11-29T12:39:02.709Z,7.00
2022-11-29T12:41:38.149Z,7.00
2022-11-29T12:44:08.129Z,7.00
2022-11-29T12:46:35.478Z,7.00
2022-11-29T12:49:23.506Z,7.00
2022-11-29T12:51:59.341Z,6.90
2022-11-29T12:54:32.059Z,6.90
2022-11-29T12:57:14.428Z,6.90
2022-11-29T13:00:00.799Z,6.90
2022-11-29T13:02:30.419Z,6.90
2022-11-29T13:04:59.944Z,6.90
2022-11-29T13:07:52.620Z,6.90
2022-11-29T13:10:28.781Z,6.80
2022-11-29T13:13:08.198Z,6.80
2022-11-29T13:15:58.744Z,6.80
2022-11-29T13:18:42.332Z,6.80
2022-11-29T13:21:43.904Z,6.70
2022-11-29T13:24:22.082Z,6.70
2022-11-29T13:26:50.088Z,6.80
2022-11-29T13:29:18.946Z,6.80
2022-11-29T13:31:47.250Z,6.80
2022-11-29T13:34:28.927Z,6.80
2022-11-29T13:36:58.895Z,6.80
2022-11-29T13:39:51.736Z,6.80
2022-11-29T13:42:33.759Z,6.80
2022-11-29T13:45:20.744Z,6.80
2022-11-29T13:47:53.071Z,6.70
2022-11-29T13:50:43.681Z,6.70
2022-11-29T13:53:48.151Z,6.70
2022-11-29T13:56:26.384Z,6.70
2022-11-29T13:58:54.611Z,6.60
2022-11-29T14:01:23.389Z,6.70
2022-11-29T14:04:02.305Z,6.70
2022-11-29T14:06:33.784Z,6.60
2022-11-29T14:09:24.871Z,6.60
2022-11-29T14:12:16.753Z,6.60
2022-11-29T14:14:58.306Z,6.60
2022-11-29T14:17:33.928Z,6.50
2022-11-29T14:20:22.264Z,6.50
2022-11-29T14:23:04.265Z,6.50
2022-11-29T14:28:21.548Z,6.40
2022-11-29T14:31:01.585Z,6.40
2022-11-29T14:33:46.912Z,6.30
2022-11-29T14:36:14.689Z,6.30
2022-11-29T14:38:44.691Z,6.30
2022-11-29T14:41:26.151Z,6.30
2022-11-29T14:44:16.458Z,6.20
2022-11-29T14:46:43.527Z,6.20
2022-11-29T14:49:22.542Z,6.20
2022-11-29T14:52:16.642Z,6.10
2022-11-29T14:54:56.036Z,6.20
2022-11-29T14:57:48.237Z,6.10
2022-11-29T15:00:16.033Z,6.10
2022-11-29T15:02:50.195Z,6.10
2022-11-29T15:05:45.125Z,6.10
2022-11-29T15:08:17.017Z,6.10
2022-11-29T15:10:51.684Z,6.00
2022-11-29T15:13:33.315Z,6.00
2022-11-29T15:16:19.009Z,6.00
2022-11-29T15:19:23.407Z,5.90
2022-11-29T15:22:15.119Z,5.90
2022-11-29T15:25:06.434Z,5.90
2022-11-29T15:27:39.865Z,5.80
2022-11-29T15:30:25.322Z,5.80
2022-11-29T15:32:55.380Z,5.70
2022-11-29T15:35:23.544Z,5.70
2022-11-29T15:37:52.976Z,5.70
2022-11-29T15:40:26.894Z,5.60
2022-11-29T15:43:17.216Z,5.60
2022-11-29T15:45:56.863Z,5.60
2022-11-29T15:48:29.803Z,5.50
2022-11-29T15:51:19.976Z,5.50
2022-11-29T15:54:00.414Z,5.50
2022-11-29T15:56:59.502Z,5.40
2022-11-29T15:59:41.786Z,5.40
2022-11-29T16:02:22.345Z,5.40
2022-11-29T16:04:53.978Z,5.30
2022-11-29T16:07:24.289Z,5.30
2022-11-29T16:09:58.414Z,5.30
2022-11-29T16:12:26.403Z,5.30
2022-11-29T16:14:58.611Z,5.30
2022-11-29T16:17:32.703Z,5.20
2022-11-29T16:20:14.599Z,5.20
2022-11-29T16:22:41.477Z,5.20
2022-11-29T16:25:20.748Z,5.20
2022-11-29T16:27:48.716Z,5.20
2022-11-29T16:30:25.468Z,5.20
2022-11-29T16:33:00.195Z,5.20
2022-11-29T16:35:31.133Z,5.20
2022-11-29T16:37:57.956Z,5.10
2022-11-29T16:40:28.710Z,5.20
2022-11-29T16:43:04.509Z,5.10
2022-11-29T16:45:37.697Z,5.10
2022-11-29T16:48:31.302Z,5.10
2022-11-29T16:51:20.819Z,5.10
2022-11-29T16:53:49.808Z,5.10
2022-11-29T16:56:26.974Z,5.10
2022-11-29T16:59:25.771Z,5.10
2022-11-29T17:01:48.855Z,5.10
2022-11-29T17:04:23.910Z,5.10
2022-11-29T17:06:55.948Z,5.00
2022-11-29T17:09:29.512Z,5.00
2022-11-29T17:11:59.628Z,5.00
2022-11-29T17:14:27.993Z,5.00
2022-11-29T17:16:55.281Z,5.00
2022-11-29T17:19:23.612Z,4.90
2022-11-29T17:21:51.852Z,5.00
2022-11-29T17:24:20.767Z,5.00
2022-11-29T17:26:47.695Z,5.00
2022-11-29T17:29:15.631Z,4.90
2022-11-29T17:31:46.610Z,4.90
2022-11-29T17:34:13.795Z,4.90
2022-11-29T17:36:40.672Z,4.90
2022-11-29T17:39:07.849Z,4.90
2022-11-29T17:41:35.206Z,4.90
2022-11-29T17:44:02.088Z,4.80
2022-11-29T17:46:34.941Z,4.80
2022-11-29T17:49:07.027Z,4.80
2022-11-29T17:51:52.684Z,4.80
2022-11-29T17:54:21.116Z,4.80
2022-11-29T17:56:47.997Z,4.80
2022-11-29T17:59:14.934Z,4.80
2022-11-29T18:01:41.909Z,4.80
2022-11-29T18:04:08.904Z,4.80
2022-11-29T18:06:39.183Z,4.80
2022-11-29T18:09:08.530Z,4.70
2022-11-29T18:11:45.309Z,4.80
2022-11-29T18:14:17.119Z,4.70
2022-11-29T18:16:45.514Z,4.70
2022-11-29T18:19:15.088Z,4.70
2022-11-29T18:21:42.152Z,4.70
2022-11-29T18:24:09.937Z,4.70
2022-11-29T18:26:37.562Z,4.70
2022-11-29T18:29:05.932Z,4.60
2022-11-29T18:31:38.796Z,4.70
2022-11-29T18:34:09.562Z,4.70
2022-11-29T18:36:45.051Z,4.60
2022-11-29T18:39:15.314Z,4.60
2022-11-29T18:41:44.583Z,4.60
2022-11-29T18:44:14.334Z,4.60
2022-11-29T18:46:43.523Z,4.50
2022-11-29T18:49:13.104Z,4.50
2022-11-29T18:51:42.957Z,4.50
2022-11-29T18:54:10.477Z,4.50
2022-11-29T18:56:37.946Z,4.50
2022-11-29T18:59:09.596Z,4.50
2022-11-29T19:01:41.062Z,4.40
2022-11-29T19:04:11.368Z,4.40
2022-11-29T19:06:40.009Z,4.40
2022-11-29T19:09:11.948Z,4.40
2022-11-29T19:11:39.674Z,4.40
2022-11-29T19:14:11.700Z,4.40
2022-11-29T19:16:43.370Z,4.40
2022-11-29T19:19:10.528Z,4.40
2022-11-29T19:21:39.696Z,4.50
2022-11-29T19:24:13.643Z,4.50
2022-11-29T19:26:44.295Z,4.50
2022-11-29T19:29:12.258Z,4.50
2022-11-29T19:31:39.492Z,4.50
2022-11-29T19:34:06.690Z,4.50
2022-11-29T19:36:34.070Z,4.50
2022-11-29T19:39:02.063Z,4.50
2022-11-29T19:41:32.874Z,4.50
2022-11-29T19:44:04.610Z,4.50
2022-11-29T19:46:36.427Z,4.50
2022-11-29T19:49:05.349Z,4.50
2022-11-29T19:51:32.797Z,4.50
2022-11-29T19:54:01.972Z,4.50
2022-11-29T19:56:30.004Z,4.50
2022-11-29T19:58:57.241Z,4.50
2022-11-29T20:01:37.712Z,4.50
2022-11-29T20:04:04.898Z,4.50
2022-11-29T20:06:31.788Z,4.60
2022-11-29T20:08:58.601Z,4.60
2022-11-29T20:11:26.295Z,4.50
2022-11-29T20:13:56.058Z,4.50
2022-11-29T20:16:23.624Z,4.60
2022-11-29T20:18:51.725Z,4.60
2022-11-29T20:21:20.803Z,4.60
2022-11-29T20:23:47.659Z,4.50
2022-11-29T20:26:20.350Z,4.50
2022-11-29T20:28:47.925Z,4.50
2022-11-29T20:31:21.282Z,4.50
2022-11-29T20:33:50.758Z,4.50
2022-11-29T20:36:41.781Z,4.50
2022-11-29T20:39:47.477Z,4.50
2022-11-29T20:42:28.801Z,4.50
2022-11-29T20:45:01.125Z,4.50
2022-11-29T20:47:50.488Z,4.50
2022-11-29T20:50:23.533Z,4.50
2022-11-29T20:52:56.388Z,4.50
2022-11-29T20:55:23.557Z,4.50
2022-11-29T20:57:50.412Z,4.60
2022-11-29T21:00:18.282Z,4.60
2022-11-29T21:02:45.291Z,4.50
2022-11-29T21:05:12.237Z,4.60
2022-11-29T21:07:39.389Z,4.60
2022-11-29T21:10:06.958Z,4.60
2022-11-29T21:12:34.263Z,4.60
2022-11-29T21:15:01.296Z,4.60
2022-11-29T21:17:33.398Z,4.60
2022-11-29T21:20:01.492Z,4.60
2022-11-29T21:22:59.762Z,4.60
2022-11-29T21:25:49.837Z,4.60
2022-11-29T21:28:17.921Z,4.60
2022-11-29T21:30:45.257Z,4.60
2022-11-29T21:33:12.564Z,4.60
2022-11-29T21:35:40.039Z,4.60
2022-11-29T21:38:14.369Z,4.60
2022-11-29T21:40:41.260Z,4.60
2022-11-29T21:43:09.075Z,4.60
2022-11-29T21:45:36.264Z,4.60
2022-11-29T21:48:03.115Z,4.60
2022-11-29T21:50:30.012Z,4.60
2022-11-29T21:52:56.799Z,4.60
2022-11-29T21:55:31.412Z,4.60
2022-11-29T21:57:58.762Z,4.60
2022-11-29T22:00:26.202Z,4.60
2022-11-29T22:02:53.035Z,4.60
2022-11-29T22:05:19.855Z,4.60
2022-11-29T22:07:46.702Z,4.60
2022-11-29T22:10:13.839Z,4.60
2022-11-29T22:12:49.305Z,4.50
2022-11-29T22:15:24.187Z,4.50
2022-11-29T22:17:53.301Z,4.50
2022-11-29T22:20:20.733Z,4.50
2022-11-29T22:22:48.528Z,4.50
2022-11-29T22:25:15.783Z,4.50
2022-11-29T22:27:42.640Z,4.50
2022-11-29T22:30:10.049Z,4.60
2022-11-29T22:32:36.884Z,4.60
2022-11-29T22:35:03.975Z,4.60
2022-11-29T22:37:30.785Z,4.60
2022-11-29T22:39:57.799Z,4.60
2022-11-29T22:42:24.891Z,4.60
2022-11-29T22:44:51.847Z,4.60
2022-11-29T22:47:18.629Z,4.60
2022-11-29T22:49:45.443Z,4.60
2022-11-29T22:52:12.285Z,4.60
2022-11-29T22:54:39.104Z,4.60
2022-11-29T22:57:06.191Z,4.60
2022-11-29T22:59:33.049Z,4.60
2022-11-29T23:01:59.873Z,4.60
2022-11-29T23:04:26.738Z,4.60
2022-11-29T23:06:53.532Z,4.60
2022-11-29T23:09:22.342Z,4.50
2022-11-29T23:11:53.942Z,4.50
2022-11-29T23:14:22.262Z,4.50
2022-11-29T23:16:49.481Z,4.50
2022-11-29T23:19:17.276Z,4.50
2022-11-29T23:21:45.749Z,4.50
2022-11-29T23:24:13.989Z,4.50
2022-11-29T23:26:44.274Z,4.50
2022-11-29T23:29:14.488Z,4.40
2022-11-29T23:31:42.660Z,4.40
2022-11-29T23:34:10.741Z,4.40
2022-11-29T23:36:37.598Z,4.40
2022-11-29T23:39:06.532Z,4.40
2022-11-29T23:41:34.549Z,4.40
2022-11-29T23:44:04.425Z,4.40
2022-11-29T23:46:31.319Z,4.40
2022-11-29T23:48:58.190Z,4.40
2022-11-29T23:51:24.967Z,4.30
2022-11-29T23:53:55.087Z,4.30
2022-11-29T23:56:22.582Z,4.30
2022-11-29T23:58:49.937Z,4.30
